createdAt,value
2024-02-19T00:01:18.040Z,1.30
2024-02-19T00:06:39.128Z,1.30
2024-02-19T00:11:59.989Z,1.67
2024-02-19T00:17:21.219Z,2.15
2024-02-19T00:22:42.104Z,1.60
2024-02-19T00:28:03.156Z,1.52
2024-02-19T00:33:24.320Z,0.95
2024-02-19T00:38:45.117Z,1.73
2024-02-19T00:44:06.315Z,2.47
2024-02-19T00:49:27.561Z,1.92
2024-02-19T00:54:48.374Z,2.70
2024-02-19T01:00:09.528Z,2.40
2024-02-19T01:05:30.412Z,2.78
2024-02-19T01:10:51.331Z,1.98
2024-02-19T01:16:12.414Z,2.40
2024-02-19T01:21:33.279Z,2.08
2024-02-19T01:26:54.447Z,2.40
2024-02-19T01:32:15.760Z,1.30
2024-02-19T01:37:36.772Z,1.88
2024-02-19T01:43:02.633Z,0.90
2024-02-19T01:48:23.771Z,1.00
2024-02-19T01:53:45.574Z,0.75
2024-02-19T01:59:08.216Z,1.00
2024-02-19T02:04:29.446Z,1.25
2024-02-19T02:09:50.807Z,1.17
2024-02-19T02:15:12.132Z,0.85
2024-02-19T02:20:33.612Z,1.10
2024-02-19T02:25:54.528Z,0.98
2024-02-19T02:31:15.917Z,0.60
2024-02-19T02:36:37.252Z,0.55
2024-02-19T02:41:58.130Z,1.17
2024-02-19T02:47:19.139Z,0.55
2024-02-19T02:52:40.353Z,0.85
2024-02-19T02:58:01.356Z,0.50
2024-02-19T03:03:22.266Z,0.70
2024-02-19T03:08:43.165Z,1.38
2024-02-19T03:14:04.348Z,1.17
2024-02-19T03:19:25.495Z,1.02
2024-02-19T03:24:46.658Z,0.95
2024-02-19T03:30:08.141Z,1.85
2024-02-19T03:35:28.991Z,1.40
2024-02-19T03:40:49.833Z,1.17
2024-02-19T03:46:10.712Z,1.38
2024-02-19T03:51:31.725Z,0.98
2024-02-19T03:56:52.710Z,0.80
2024-02-19T04:02:13.901Z,0.90
2024-02-19T04:07:34.785Z,0.68
2024-02-19T04:12:55.814Z,0.73
2024-02-19T04:18:16.983Z,0.80
2024-02-19T04:23:38.254Z,0.75
2024-02-19T04:28:59.303Z,1.08
2024-02-19T04:34:20.388Z,0.73
2024-02-19T04:39:41.306Z,0.95
2024-02-19T04:45:02.469Z,0.70
2024-02-19T04:50:23.416Z,0.90
2024-02-19T04:55:44.602Z,0.90
2024-02-19T05:01:05.737Z,1.00
2024-02-19T05:06:26.649Z,1.13
2024-02-19T05:11:47.542Z,1.40
2024-02-19T05:17:08.692Z,2.20
2024-02-19T05:22:29.814Z,2.30
2024-02-19T05:27:50.621Z,2.28
2024-02-19T05:33:12.662Z,2.05
2024-02-19T05:38:35.518Z,2.40
2024-02-19T05:43:57.746Z,2.95
2024-02-19T05:49:19.086Z,2.22
2024-02-19T05:54:40.015Z,2.15
2024-02-19T06:00:01.146Z,2.47
2024-02-19T06:05:21.937Z,2.05
2024-02-19T06:10:43.066Z,2.47
2024-02-19T06:16:04.253Z,1.85
2024-02-19T06:21:25.050Z,1.98
2024-02-19T06:26:45.950Z,1.67
2024-02-19T06:32:07.393Z,1.83
2024-02-19T06:37:28.518Z,2.13
2024-02-19T06:42:50.904Z,2.03
2024-02-19T06:48:13.316Z,2.83
2024-02-19T06:53:34.071Z,2.65
2024-02-19T06:58:55.190Z,2.70
2024-02-19T07:04:16.392Z,2.25
2024-02-19T07:09:37.956Z,3.40
2024-02-19T07:14:59.238Z,2.55
2024-02-19T07:20:20.682Z,3.13
2024-02-19T07:25:42.022Z,3.33
2024-02-19T07:31:03.037Z,2.67
2024-02-19T07:36:24.367Z,4.65
2024-02-19T07:41:45.487Z,2.85
2024-02-19T07:47:06.752Z,2.85
2024-02-19T07:52:28.095Z,3.08
2024-02-19T07:57:48.986Z,3.67
2024-02-19T08:03:09.907Z,3.25
2024-02-19T08:08:30.952Z,3.33
2024-02-19T08:13:53.235Z,3.92
2024-02-19T08:19:14.286Z,4.25
2024-02-19T08:24:36.861Z,3.63
2024-02-19T08:29:57.810Z,3.80
2024-02-19T08:35:19.179Z,4.32
2024-02-19T08:40:40.675Z,3.83
2024-02-19T08:46:01.587Z,3.05
2024-02-19T08:51:24.781Z,3.72
2024-02-19T08:56:46.177Z,3.00
2024-02-19T09:02:07.590Z,4.22
2024-02-19T09:07:28.904Z,3.38
2024-02-19T09:12:49.878Z,3.95
2024-02-19T09:18:10.700Z,4.30
2024-02-19T09:23:31.811Z,4.03
2024-02-19T09:28:52.798Z,3.70
2024-02-19T09:34:13.804Z,4.07
2024-02-19T09:39:34.821Z,4.63
2024-02-19T09:44:55.995Z,3.92
2024-02-19T09:50:17.646Z,4.20
2024-02-19T09:55:39.844Z,3.92
2024-02-19T10:01:00.820Z,4.18
2024-02-19T10:06:21.947Z,4.43
2024-02-19T10:11:43.361Z,3.50
2024-02-19T10:17:04.473Z,3.47
2024-02-19T10:22:25.781Z,3.42
2024-02-19T10:27:46.773Z,3.78
2024-02-19T10:33:07.842Z,3.83
2024-02-19T10:38:28.826Z,3.63
2024-02-19T10:43:50.832Z,4.07
2024-02-19T10:49:11.812Z,5.95
2024-02-19T10:54:33.270Z,5.90
2024-02-19T11:00:14.971Z,6.18
2024-02-19T11:05:39.894Z,6.43
2024-02-19T11:11:01.336Z,6.22
2024-02-19T11:16:27.425Z,6.30
2024-02-19T11:21:48.581Z,6.35
2024-02-19T11:27:10.119Z,5.43
2024-02-19T11:32:31.054Z,6.32
2024-02-19T11:37:51.925Z,5.75
2024-02-19T11:43:13.124Z,5.57
2024-02-19T11:48:34.336Z,5.43
2024-02-19T11:53:55.794Z,4.95
2024-02-19T11:59:17.534Z,4.88
2024-02-19T12:04:39.569Z,4.57
2024-02-19T12:10:00.957Z,4.35
2024-02-19T12:15:21.895Z,4.55
2024-02-19T12:20:43.136Z,4.18
2024-02-19T12:26:05.695Z,4.18
2024-02-19T12:31:28.543Z,5.07
2024-02-19T12:36:49.743Z,4.47
2024-02-19T12:42:11.553Z,4.53
2024-02-19T12:47:32.848Z,5.25
2024-02-19T12:52:53.720Z,5.40
2024-02-19T12:58:14.841Z,4.50
2024-02-19T13:03:35.688Z,4.15
2024-02-19T13:08:57.053Z,3.83
2024-02-19T13:14:18.183Z,4.43
2024-02-19T13:19:39.519Z,4.70
2024-02-19T13:25:00.944Z,4.07
2024-02-19T13:30:21.984Z,4.15
2024-02-19T13:35:43.133Z,4.47
2024-02-19T13:41:04.272Z,4.00
2024-02-19T13:46:25.794Z,4.45
2024-02-19T13:51:46.726Z,4.47
2024-02-19T13:57:08.513Z,4.35
2024-02-19T14:02:29.876Z,4.60
2024-02-19T14:07:50.900Z,4.30
2024-02-19T14:13:11.912Z,4.72
2024-02-19T14:18:32.869Z,4.82
2024-02-19T14:23:53.848Z,5.25
2024-02-19T14:29:14.733Z,5.20
2024-02-19T14:34:36.027Z,6.22
2024-02-19T14:39:57.184Z,6.30
2024-02-19T14:45:18.188Z,7.80
2024-02-19T14:50:39.275Z,6.72
2024-02-19T14:56:00.605Z,5.80
2024-02-19T15:01:21.740Z,5.60
2024-02-19T15:06:42.634Z,5.47
2024-02-19T15:12:04.183Z,5.45
2024-02-19T15:17:25.478Z,5.60
2024-02-19T15:22:46.544Z,5.28
2024-02-19T15:28:07.389Z,5.35
2024-02-19T15:33:28.360Z,5.18
2024-02-19T15:38:49.434Z,4.97
2024-02-19T15:44:10.614Z,4.22
2024-02-19T15:49:31.811Z,3.88
2024-02-19T15:54:52.852Z,4.47
2024-02-19T16:00:14.320Z,4.53
2024-02-19T16:05:35.250Z,3.92
2024-02-19T16:10:56.240Z,3.65
2024-02-19T16:16:17.619Z,4.00
2024-02-19T16:21:39.021Z,3.75
2024-02-19T16:27:00.008Z,4.10
2024-02-19T16:32:20.968Z,5.03
2024-02-19T16:37:42.009Z,5.35
2024-02-19T16:43:02.901Z,4.97
2024-02-19T16:48:23.942Z,5.82
2024-02-19T16:53:46.176Z,13.02
2024-02-19T16:59:07.452Z,8.73
2024-02-19T17:04:28.398Z,6.70
2024-02-19T17:09:49.534Z,6.20
2024-02-19T17:15:10.449Z,6.57
2024-02-19T17:20:31.530Z,7.82
2024-02-19T17:25:52.675Z,7.25
2024-02-19T17:31:13.795Z,5.72
2024-02-19T17:36:34.786Z,7.40
2024-02-19T17:41:56.001Z,6.80
2024-02-19T17:47:17.253Z,7.22
2024-02-19T17:52:39.127Z,7.13
2024-02-19T17:58:00.004Z,6.10
2024-02-19T18:03:20.845Z,6.13
2024-02-19T18:08:41.785Z,6.38
2024-02-19T18:14:02.677Z,6.28
2024-02-19T18:19:23.932Z,6.82
2024-02-19T18:24:44.927Z,7.25
2024-02-19T18:30:06.371Z,7.05
2024-02-19T18:35:28.288Z,5.75
2024-02-19T18:40:49.234Z,5.80
2024-02-19T18:46:10.207Z,5.65
2024-02-19T18:51:31.116Z,5.03
2024-02-19T18:56:52.030Z,4.47
2024-02-19T19:02:13.235Z,4.70
2024-02-19T19:07:34.569Z,4.50
2024-02-19T19:12:55.661Z,4.85
2024-02-19T19:18:16.789Z,4.88
2024-02-19T19:23:37.929Z,6.35
2024-02-19T19:28:59.219Z,5.22
2024-02-19T19:34:20.168Z,5.95
2024-02-19T19:39:41.097Z,5.43
2024-02-19T19:45:02.020Z,4.60
2024-02-19T19:50:22.883Z,4.22
2024-02-19T19:55:43.788Z,4.85
2024-02-19T20:01:05.025Z,4.25
2024-02-19T20:06:26.101Z,3.65
2024-02-19T20:11:47.338Z,3.92
2024-02-19T20:17:08.332Z,3.35
2024-02-19T20:22:29.656Z,3.95
2024-02-19T20:27:50.653Z,4.22
2024-02-19T20:33:12.001Z,4.18
2024-02-19T20:38:33.334Z,3.90
2024-02-19T20:43:54.634Z,4.72
2024-02-19T20:49:15.840Z,4.25
2024-02-19T20:54:36.735Z,4.40
2024-02-19T20:59:57.848Z,4.03
2024-02-19T21:05:19.014Z,4.47
2024-02-19T21:10:40.223Z,3.15
2024-02-19T21:16:01.191Z,3.55
2024-02-19T21:21:30.044Z,3.30
2024-02-19T21:26:58.214Z,3.10
2024-02-19T21:32:21.568Z,4.28
2024-02-19T21:37:42.825Z,4.10
2024-02-19T21:43:04.278Z,3.50
2024-02-19T21:48:25.459Z,3.25
2024-02-19T21:53:46.336Z,3.22
2024-02-19T21:59:07.852Z,3.13
2024-02-19T22:04:29.545Z,3.13
2024-02-19T22:09:50.822Z,3.90
2024-02-19T22:15:11.979Z,3.83
2024-02-19T22:20:32.888Z,4.25
2024-02-19T22:25:54.238Z,3.97
2024-02-19T22:31:15.426Z,4.00
2024-02-19T22:36:36.278Z,4.60
2024-02-19T22:41:57.506Z,4.47
2024-02-19T22:47:18.416Z,4.20
2024-02-19T22:52:42.198Z,3.00
2024-02-19T22:58:04.599Z,3.80
2024-02-19T23:03:25.454Z,4.30
2024-02-19T23:08:46.343Z,3.97
2024-02-19T23:14:07.882Z,4.85
2024-02-19T23:19:29.310Z,4.57
2024-02-19T23:24:50.572Z,4.70
2024-02-19T23:30:11.836Z,4.38
2024-02-19T23:35:32.972Z,4.45
2024-02-19T23:40:54.137Z,4.40
2024-02-19T23:46:15.163Z,3.90
2024-02-19T23:51:36.267Z,4.28
2024-02-19T23:56:58.275Z,4.47
